Time;durP1;ratioP1;P1;durP2;ratioP2;P2;SDS_P1;SDS_P2;PMS_P1;PMS_P2;Temp;Humidity;BMP_temperature;BMP_pressure;BME280_temperature;BME280_humidity;BME280_pressure;Samples;Min_cycle;Max_cycle;Signal;HPM_P1;HPM_P2
2023/04/29 00:00:06;;;;;;;;;;;;;;;18.49;63.48;101137.13;7402360;19;1527;-54
2023/04/29 00:02:34;;;;;;;;;;;;;;;18.46;63.49;101144.56;7402738;19;1543;-54
2023/04/29 00:05:05;;;;;;;;;;;;;;;18.43;63.46;101147.50;7401951;19;1536;-54
2023/04/29 00:07:35;;;;;;;;;;;;;;;18.40;63.52;101131.66;7399846;19;1863;-54
2023/04/29 00:10:03;;;;;;;;;;;;;;;18.44;63.53;101143.84;7402619;19;1244;-54
2023/04/29 00:12:32;;;;;;;;;;;;;;;18.38;63.20;101139.84;7402690;19;1082;-54
2023/04/29 00:15:01;;;;;;;;;;;;;;;18.45;63.04;101143.72;7401764;19;1405;-54
2023/04/29 00:17:30;;;;;;;;;;;;;;;18.45;63.08;101157.09;7402515;19;1880;-54
2023/04/29 00:19:58;;;;;;;;;;;;;;;18.50;62.77;101151.38;7402100;19;1527;-54
2023/04/29 00:22:29;;;;;;;;;;;;;;;18.53;63.22;101150.31;7399171;19;1540;-55
2023/04/29 00:24:57;;;;;;;;;;;;;;;18.44;63.40;101146.50;7401467;19;1579;-54
2023/04/29 00:27:26;;;;;;;;;;;;;;;18.38;63.48;101147.00;7397061;19;1852;-54
2023/04/29 00:29:57;;;;;;;;;;;;;;;18.42;63.44;101151.13;7398117;19;1544;-54
2023/04/29 00:32:25;;;;;;;;;;;;;;;18.40;63.11;101140.56;7401700;19;1090;-54
2023/04/29 00:34:54;;;;;;;;;;;;;;;18.38;62.98;101133.63;7400700;19;1560;-54
2023/04/29 00:37:22;;;;;;;;;;;;;;;18.41;63.06;101136.91;7399893;19;1511;-54
2023/04/29 00:39:53;;;;;;;;;;;;;;;18.37;62.92;101134.59;7400855;19;1033;-54
2023/04/29 00:42:22;;;;;;;;;;;;;;;18.43;63.04;101144.81;7400559;19;1080;-54
2023/04/29 00:44:50;;;;;;;;;;;;;;;18.39;63.18;101148.72;7400174;19;1947;-55
2023/04/29 00:47:18;;;;;;;;;;;;;;;18.39;63.25;101138.00;7399463;19;1860;-54
2023/04/29 00:49:47;;;;;;;;;;;;;;;18.37;63.05;101138.13;7400480;19;1477;-54
2023/04/29 00:52:16;;;;;;;;;;;;;;;18.35;63.46;101128.53;7400482;19;1481;-54
2023/04/29 00:54:45;;;;;;;;;;;;;;;18.35;63.22;101132.03;7399730;19;1485;-54
2023/04/29 00:57:16;;;;;;;;;;;;;;;18.37;63.07;101129.25;7399898;19;1425;-54
2023/04/29 00:59:45;;;;;;;;;;;;;;;18.33;63.53;101133.16;7399473;19;1619;-54
2023/04/29 01:02:14;;;;;;;;;;;;;;;18.26;63.81;101117.59;7399654;19;1532;-54
2023/04/29 01:04:42;;;;;;;;;;;;;;;18.29;63.59;101120.00;7399249;19;1540;-54
2023/04/29 01:07:14;;;;;;;;;;;;;;;18.29;63.13;101122.66;7398886;19;1838;-54
2023/04/29 01:09:50;;;;;;;;;;;;;;;18.23;63.37;101136.56;7399315;19;1211;-54
2023/04/29 01:12:28;;;;;;;;;;;;;;;18.27;63.34;101105.88;7399918;19;1603;-54
2023/04/29 01:15:03;;;;;;;;;;;;;;;18.28;63.64;101118.31;7399221;19;1544;-54
2023/04/29 01:17:33;;;;;;;;;;;;;;;18.29;62.99;101111.13;7399628;19;1576;-54
2023/04/29 01:20:03;;;;;;;;;;;;;;;18.33;63.17;101111.72;7399172;19;1021;-54
2023/04/29 01:22:31;;;;;;;;;;;;;;;18.36;62.70;101127.53;7398912;19;1541;-54
2023/04/29 01:25:02;;;;;;;;;;;;;;;18.23;63.12;101115.13;7397801;19;1612;-54
2023/04/29 01:27:32;;;;;;;;;;;;;;;18.35;63.33;101115.97;7396431;19;1851;-54
2023/04/29 01:30:04;;;;;;;;;;;;;;;18.34;62.88;101114.25;7399128;19;1572;-54
2023/04/29 01:32:39;;;;;;;;;;;;;;;18.29;63.22;101116.47;7399325;19;1227;-54
2023/04/29 01:35:13;;;;;;;;;;;;;;;18.31;62.89;101108.31;7398958;19;1254;-54
2023/04/29 01:37:43;;;;;;;;;;;;;;;18.27;63.44;101108.56;7398624;19;1543;-54
2023/04/29 01:40:18;;;;;;;;;;;;;;;18.31;63.06;101121.72;7395652;19;1207;-54
2023/04/29 01:42:47;;;;;;;;;;;;;;;18.25;63.33;101113.19;7397606;19;1513;-54
2023/04/29 01:45:17;;;;;;;;;;;;;;;18.53;62.63;101116.31;7399128;19;1485;-54
2023/04/29 01:47:46;;;;;;;;;;;;;;;18.88;61.99;101120.69;7397861;19;1860;-54
2023/04/29 01:50:14;;;;;;;;;;;;;;;19.55;60.00;101089.19;7397910;19;1481;-55
2023/04/29 01:52:43;;;;;;;;;;;;;;;20.11;58.81;101099.53;7396988;19;1477;-54
2023/04/29 01:55:14;;;;;;;;;;;;;;;20.34;58.21;101105.56;7396778;19;1536;-54
2023/04/29 01:57:43;;;;;;;;;;;;;;;20.35;58.39;101107.28;7397998;19;1516;-54
2023/04/29 02:00:11;;;;;;;;;;;;;;;20.45;58.25;101104.59;7397322;19;1469;-54
2023/04/29 02:02:40;;;;;;;;;;;;;;;20.49;58.30;101097.13;7397813;19;1492;-54
2023/04/29 02:05:08;;;;;;;;;;;;;;;20.56;57.92;101106.34;7397335;19;1544;-54
2023/04/29 02:07:37;;;;;;;;;;;;;;;20.64;58.05;101115.44;7396147;19;1851;-54
2023/04/29 02:10:05;;;;;;;;;;;;;;;20.75;57.59;101105.56;7397067;19;1180;-54
2023/04/29 02:12:36;;;;;;;;;;;;;;;20.80;57.71;101106.00;7397045;19;1259;-54
2023/04/29 02:15:05;;;;;;;;;;;;;;;20.85;57.79;101109.13;7397720;19;1603;-54
2023/04/29 02:17:35;;;;;;;;;;;;;;;20.80;57.62;101108.69;7396263;19;1573;-54
2023/04/29 02:20:03;;;;;;;;;;;;;;;20.68;58.00;101104.44;7397604;19;1047;-54
2023/04/29 02:22:32;;;;;;;;;;;;;;;20.54;58.51;101103.78;7397047;19;1580;-54
2023/04/29 02:25:00;;;;;;;;;;;;;;;20.65;58.12;101098.34;7395440;19;1450;-54
2023/04/29 02:27:28;;;;;;;;;;;;;;;20.66;58.28;101088.44;7394492;19;1860;-54
2023/04/29 02:29:59;;;;;;;;;;;;;;;20.70;58.09;101099.78;7396981;19;1536;-54
2023/04/29 02:32:28;;;;;;;;;;;;;;;20.62;58.35;101090.56;7395697;19;1068;-54
2023/04/29 02:34:56;;;;;;;;;;;;;;;20.79;57.93;101082.78;7397059;19;1548;-54
2023/04/29 02:37:25;;;;;;;;;;;;;;;20.87;57.84;101082.97;7396178;19;1330;-54
2023/04/29 02:39:53;;;;;;;;;;;;;;;20.92;57.90;101095.97;7394124;19;1230;-54
2023/04/29 02:42:22;;;;;;;;;;;;;;;20.99;57.36;101091.72;7397505;19;1017;-54
2023/04/29 02:44:50;;;;;;;;;;;;;;;21.03;57.59;101090.47;7394959;19;1940;-54
2023/04/29 02:47:21;;;;;;;;;;;;;;;20.95;57.48;101087.63;7395720;19;1858;-54
2023/04/29 02:49:49;;;;;;;;;;;;;;;20.86;58.06;101092.00;7396464;19;1559;-54
2023/04/29 02:52:18;;;;;;;;;;;;;;;20.75;58.39;101086.75;7395838;19;1976;-54
2023/04/29 02:54:46;;;;;;;;;;;;;;;20.68;58.65;101082.94;7395938;19;1445;-55
2023/04/29 02:57:15;;;;;;;;;;;;;;;20.70;58.49;101086.34;7395740;19;1536;-54
2023/04/29 02:59:43;;;;;;;;;;;;;;;20.69;58.37;101090.00;7396114;19;1599;-54
2023/04/29 03:02:11;;;;;;;;;;;;;;;20.78;58.49;101081.09;7395807;19;1239;-54
2023/04/29 03:04:42;;;;;;;;;;;;;;;20.79;58.27;101085.47;7396531;19;1532;-54
2023/04/29 03:07:10;;;;;;;;;;;;;;;20.93;57.83;101086.91;7395676;19;1830;-54
2023/04/29 03:09:39;;;;;;;;;;;;;;;21.09;57.53;101097.09;7394320;19;1873;-54
2023/04/29 03:12:07;;;;;;;;;;;;;;;21.13;57.60;101095.81;7395040;19;1818;-54
2023/04/29 03:14:35;;;;;;;;;;;;;;;21.19;57.49;101087.22;7395627;19;1516;-54
2023/04/29 03:17:04;;;;;;;;;;;;;;;21.18;57.61;101096.25;7396803;19;1021;-54
2023/04/29 03:19:32;;;;;;;;;;;;;;;21.05;57.84;101094.72;7395614;19;1235;-54
2023/04/29 03:22:03;;;;;;;;;;;;;;;20.93;57.79;101098.53;7394599;19;1943;-54
2023/04/29 03:24:31;;;;;;;;;;;;;;;20.85;58.21;101109.13;7395024;19;1144;-54
2023/04/29 03:26:59;;;;;;;;;;;;;;;20.81;58.40;101105.88;7394647;19;1850;-54
2023/04/29 03:29:28;;;;;;;;;;;;;;;20.82;58.38;101104.03;7396829;19;1140;-54
2023/04/29 03:31:57;;;;;;;;;;;;;;;20.80;58.56;101116.75;7395015;19;1246;-54
2023/04/29 03:34:25;;;;;;;;;;;;;;;20.80;58.57;101108.69;7395172;19;1342;-54
2023/04/29 03:36:54;;;;;;;;;;;;;;;20.76;58.78;101118.03;7396282;19;1167;-54
2023/04/29 03:39:27;;;;;;;;;;;;;;;20.79;58.47;101123.97;7395467;19;1485;-55
2023/04/29 03:41:55;;;;;;;;;;;;;;;20.92;58.16;101123.69;7394694;19;1556;-54
2023/04/29 03:44:23;;;;;;;;;;;;;;;20.88;58.20;101116.91;7395236;19;1528;-54
2023/04/29 03:46:51;;;;;;;;;;;;;;;20.91;58.05;101110.41;7394730;19;1847;-54
2023/04/29 03:49:20;;;;;;;;;;;;;;;20.91;58.24;101127.41;7396118;19;1195;-54
2023/04/29 03:51:48;;;;;;;;;;;;;;;21.08;57.69;101128.53;7395218;19;1932;-54
2023/04/29 03:54:16;;;;;;;;;;;;;;;21.28;57.17;101132.06;7395017;19;1543;-54
2023/04/29 03:56:47;;;;;;;;;;;;;;;21.33;57.04;101124.44;7395060;19;1258;-54
2023/04/29 03:59:16;;;;;;;;;;;;;;;21.36;57.19;101140.28;7402330;19;1540;-54
2023/04/29 04:01:44;;;;;;;;;;;;;;;20.95;57.83;101133.31;7401829;19;1179;-54
2023/04/29 04:04:13;;;;;;;;;;;;;;;20.62;58.87;101127.31;7401090;19;1183;-54
2023/04/29 04:06:42;;;;;;;;;;;;;;;20.35;59.57;101130.59;7403192;19;1872;-54
2023/04/29 04:09:10;;;;;;;;;;;;;;;20.24;59.93;101139.59;7401593;19;1532;-54
2023/04/29 04:11:40;;;;;;;;;;;;;;;19.99;60.41;101138.19;7400735;19;1211;-54
2023/04/29 04:14:11;;;;;;;;;;;;;;;20.11;60.37;101128.22;7400248;19;1944;-54
2023/04/29 04:16:40;;;;;;;;;;;;;;;20.08;60.64;101136.56;7401098;19;1347;-55
2023/04/29 04:19:08;;;;;;;;;;;;;;;19.99;61.05;101135.50;7401274;19;1258;-55
2023/04/29 04:21:37;;;;;;;;;;;;;;;19.81;59.71;101140.63;7401196;19;1465;-54
2023/04/29 04:24:05;;;;;;;;;;;;;;;19.83;59.68;101141.34;7401550;19;1215;-56
2023/04/29 04:26:33;;;;;;;;;;;;;;;20.12;59.64;101136.16;7399575;19;1956;-53
2023/04/29 04:29:02;;;;;;;;;;;;;;;20.14;60.46;101134.19;7396056;19;1912;-55
2023/04/29 04:31:33;;;;;;;;;;;;;;;20.40;60.82;101131.03;7399652;19;1564;-54
2023/04/29 04:34:01;;;;;;;;;;;;;;;20.55;59.98;101143.13;7398732;19;1266;-53
2023/04/29 04:36:29;;;;;;;;;;;;;;;20.59;60.02;101139.22;7400817;19;1292;-54
2023/04/29 04:38:58;;;;;;;;;;;;;;;20.42;60.32;101142.50;7399185;19;1548;-53
2023/04/29 04:41:26;;;;;;;;;;;;;;;20.25;60.65;101131.41;7399338;19;1280;-55
2023/04/29 04:43:54;;;;;;;;;;;;;;;20.20;60.64;101136.34;7397844;19;1172;-55
2023/04/29 04:46:22;;;;;;;;;;;;;;;20.17;60.75;101128.53;7397303;19;1532;-55
2023/04/29 04:48:53;;;;;;;;;;;;;;;20.27;61.05;101133.94;7396559;19;1857;-55
2023/04/29 04:51:22;;;;;;;;;;;;;;;20.41;60.62;101135.41;7400052;19;1557;-55
2023/04/29 04:53:50;;;;;;;;;;;;;;;20.26;61.15;101138.47;7398607;19;1262;-55
2023/04/29 04:56:19;;;;;;;;;;;;;;;20.24;60.80;101135.06;7397839;19;1366;-55
2023/04/29 04:58:47;;;;;;;;;;;;;;;20.20;60.99;101122.91;7399319;19;1452;-55
2023/04/29 05:01:15;;;;;;;;;;;;;;;20.04;61.24;101123.41;7398680;19;1130;-55
2023/04/29 05:03:44;;;;;;;;;;;;;;;20.00;61.72;101132.69;7399959;19;1157;-55
2023/04/29 05:06:14;;;;;;;;;;;;;;;20.02;62.07;101135.25;7397839;19;1568;-55
2023/04/29 05:08:43;;;;;;;;;;;;;;;20.16;62.03;101129.53;7393748;19;1873;-55
2023/04/29 05:11:17;;;;;;;;;;;;;;;19.97;62.54;101149.06;7397168;19;1496;-55
2023/04/29 05:13:45;;;;;;;;;;;;;;;19.96;62.38;101131.28;7399293;19;1462;-55
2023/04/29 05:16:14;;;;;;;;;;;;;;;20.03;62.21;101120.84;7396664;19;1580;-55
2023/04/29 05:18:44;;;;;;;;;;;;;;;19.99;62.32;101130.97;7398080;19;1520;-55
2023/04/29 05:21:14;;;;;;;;;;;;;;;19.82;62.79;101143.19;7399380;19;1116;-55
2023/04/29 05:23:43;;;;;;;;;;;;;;;19.80;63.38;101138.94;7398278;19;1560;-56
2023/04/29 05:26:11;;;;;;;;;;;;;;;20.08;62.86;101144.63;7397207;19;1481;-55
2023/04/29 05:28:40;;;;;;;;;;;;;;;20.17;62.90;101131.22;7397121;19;1853;-55
2023/04/29 05:31:08;;;;;;;;;;;;;;;20.09;63.12;101130.19;7396433;19;1262;-56
2023/04/29 05:33:36;;;;;;;;;;;;;;;20.01;63.06;101117.44;7397146;19;1386;-56
2023/04/29 05:36:05;;;;;;;;;;;;;;;20.00;63.09;101126.50;7399138;19;1074;-55
2023/04/29 05:38:37;;;;;;;;;;;;;;;19.83;63.55;101128.78;7397133;19;1407;-56
2023/04/29 05:41:05;;;;;;;;;;;;;;;19.76;63.77;101138.34;7397589;19;1457;-55
2023/04/29 05:43:33;;;;;;;;;;;;;;;19.72;63.73;101136.06;7397808;19;1626;-55
2023/04/29 05:46:01;;;;;;;;;;;;;;;19.72;63.97;101126.19;7398222;19;1279;-55
2023/04/29 05:48:30;;;;;;;;;;;;;;;19.76;64.12;101133.00;7395753;19;1997;-55
2023/04/29 05:50:58;;;;;;;;;;;;;;;19.69;64.22;101137.13;7396642;19;1199;-56
2023/04/29 05:53:26;;;;;;;;;;;;;;;19.77;63.87;101126.63;7393761;19;1425;-56
2023/04/29 05:55:57;;;;;;;;;;;;;;;19.74;64.11;101116.19;7396355;19;1460;-55
2023/04/29 05:58:26;;;;;;;;;;;;;;;19.64;64.31;101120.59;7396699;19;1250;-56
2023/04/29 06:00:54;;;;;;;;;;;;;;;19.66;64.29;101115.94;7397441;19;1255;-56
2023/04/29 06:03:22;;;;;;;;;;;;;;;19.70;64.40;101120.06;7398751;19;1254;-57
2023/04/29 06:05:50;;;;;;;;;;;;;;;19.69;64.39;101129.09;7396958;19;1566;-57
2023/04/29 06:08:19;;;;;;;;;;;;;;;19.67;64.38;101117.63;7396648;19;1861;-56
2023/04/29 06:10:50;;;;;;;;;;;;;;;19.68;64.62;101112.16;7397520;19;1219;-56
2023/04/29 06:13:21;;;;;;;;;;;;;;;19.68;64.90;101119.34;7397250;19;1536;-56
2023/04/29 06:15:49;;;;;;;;;;;;;;;19.74;64.50;101123.38;7396480;19;1176;-55
2023/04/29 06:18:18;;;;;;;;;;;;;;;19.77;64.69;101123.09;7397598;19;1554;-56
2023/04/29 06:20:46;;;;;;;;;;;;;;;19.72;64.22;101112.78;7395959;19;1183;-56
2023/04/29 06:23:14;;;;;;;;;;;;;;;19.73;64.37;101116.28;7394851;19;1505;-56
2023/04/29 06:25:42;;;;;;;;;;;;;;;19.69;64.58;101115.66;7393843;19;1441;-56
2023/04/29 06:28:11;;;;;;;;;;;;;;;19.68;64.21;101112.16;7394186;19;1857;-57
2023/04/29 06:30:42;;;;;;;;;;;;;;;19.64;63.16;101121.44;7395604;19;1232;-55
2023/04/29 06:33:11;;;;;;;;;;;;;;;19.70;63.46;101116.53;7397342;19;1246;-56
2023/04/29 06:35:40;;;;;;;;;;;;;;;19.70;63.79;101109.34;7396418;19;1924;-57
2023/04/29 06:38:09;;;;;;;;;;;;;;;19.71;64.40;101100.31;7396119;19;1433;-57
2023/04/29 06:40:38;;;;;;;;;;;;;;;19.73;64.50;101119.81;7396855;19;1521;-57
2023/04/29 06:43:06;;;;;;;;;;;;;;;19.73;64.31;101109.09;7396403;19;1461;-57
2023/04/29 06:45:35;;;;;;;;;;;;;;;19.74;64.29;101105.44;7396935;19;1583;-58
2023/04/29 06:48:06;;;;;;;;;;;;;;;19.77;64.40;101109.69;7396568;19;1819;-57
2023/04/29 06:50:35;;;;;;;;;;;;;;;19.75;64.36;101095.56;7396876;19;1266;-57
2023/04/29 06:53:03;;;;;;;;;;;;;;;19.69;65.06;101107.63;7396644;19;1173;-57
2023/04/29 06:55:31;;;;;;;;;;;;;;;19.68;65.22;101103.25;7394392;19;1885;-55
2023/04/29 06:58:00;;;;;;;;;;;;;;;19.79;65.39;101099.66;7397126;19;1235;-56
2023/04/29 07:00:28;;;;;;;;;;;;;;;19.71;64.65;101092.28;7397137;19;1604;-55
2023/04/29 07:02:56;;;;;;;;;;;;;;;19.68;64.80;101096.06;7395273;19;1442;-55
2023/04/29 07:05:28;;;;;;;;;;;;;;;19.52;63.01;101086.75;7394563;19;1429;-55
2023/04/29 07:07:56;;;;;;;;;;;;;;;19.38;59.80;101098.69;7394706;19;1855;-55
2023/04/29 07:10:25;;;;;;;;;;;;;;;19.33;59.55;101107.09;7394642;19;1257;-56
2023/04/29 07:12:53;;;;;;;;;;;;;;;19.24;58.64;101094.47;7393200;19;1203;-56
2023/04/29 07:15:21;;;;;;;;;;;;;;;19.31;56.42;101103.69;7391140;19;1547;-56
2023/04/29 07:17:50;;;;;;;;;;;;;;;19.34;57.44;101098.09;7392017;19;1192;-51
2023/04/29 07:20:19;;;;;;;;;;;;;;;19.24;56.97;101095.31;7391907;19;1528;-55
2023/04/29 07:22:50;;;;;;;;;;;;;;;19.29;56.64;101092.25;7391390;19;1437;-55
2023/04/29 07:25:18;;;;;;;;;;;;;;;19.28;51.94;101087.88;7391298;19;1219;-56
2023/04/29 07:27:46;;;;;;;;;;;;;;;19.34;52.50;101089.16;7388189;19;1856;-55
2023/04/29 07:30:15;;;;;;;;;;;;;;;19.33;52.70;101091.00;7391293;19;1190;-55
2023/04/29 07:32:43;;;;;;;;;;;;;;;19.37;53.02;101081.72;7397677;19;1213;-55
2023/04/29 07:35:11;;;;;;;;;;;;;;;19.44;52.50;101100.84;7396491;19;1159;-55
2023/04/29 07:37:40;;;;;;;;;;;;;;;19.37;53.13;101084.41;7397452;19;1544;-55
2023/04/29 07:40:11;;;;;;;;;;;;;;;19.41;52.42;101107.28;7397370;19;1184;-55
2023/04/29 07:42:39;;;;;;;;;;;;;;;19.35;52.86;101089.03;7401163;19;1585;-55
2023/04/29 07:45:08;;;;;;;;;;;;;;;19.32;53.05;101073.22;7402800;19;1167;-55
2023/04/29 07:47:37;;;;;;;;;;;;;;;19.22;52.98;101075.84;7402129;19;1877;-55
2023/04/29 07:50:05;;;;;;;;;;;;;;;19.25;52.53;101090.81;7399801;19;1916;-55
2023/04/29 07:52:33;;;;;;;;;;;;;;;19.28;51.40;101071.78;7402275;19;1290;-55
2023/04/29 07:55:02;;;;;;;;;;;;;;;19.29;52.13;101078.84;7402357;19;1255;-54
2023/04/29 07:57:33;;;;;;;;;;;;;;;19.28;49.83;101072.63;7401970;19;1493;-55
2023/04/29 08:00:01;;;;;;;;;;;;;;;19.29;50.19;101084.19;7402447;19;1233;-55
2023/04/29 08:02:29;;;;;;;;;;;;;;;19.24;50.16;101070.34;7403263;19;1238;-55
2023/04/29 08:04:57;;;;;;;;;;;;;;;19.21;51.55;101071.44;7401918;19;1603;-54
2023/04/29 08:07:27;;;;;;;;;;;;;;;19.32;50.02;101075.91;7401480;19;1124;-55
2023/04/29 08:09:55;;;;;;;;;;;;;;;19.34;48.74;101068.59;7400413;19;1899;-55
2023/04/29 08:12:23;;;;;;;;;;;;;;;19.35;50.95;101061.38;7402862;19;1104;-55
2023/04/29 08:14:54;;;;;;;;;;;;;;;19.27;50.09;101060.19;7401786;19;1525;-54
2023/04/29 08:17:23;;;;;;;;;;;;;;;19.34;49.50;101071.25;7399105;19;1622;-55
2023/04/29 08:19:51;;;;;;;;;;;;;;;19.47;49.29;101050.44;7402309;19;1102;-55
2023/04/29 08:22:19;;;;;;;;;;;;;;;19.43;49.78;101066.94;7401487;19;1790;-54
2023/04/29 08:24:48;;;;;;;;;;;;;;;19.33;50.15;101042.72;7400696;19;1524;-55
2023/04/29 08:27:16;;;;;;;;;;;;;;;19.17;50.03;101050.38;7399301;19;1626;-55
2023/04/29 08:29:45;;;;;;;;;;;;;;;19.10;50.32;101044.72;7399197;19;1870;-54
2023/04/29 08:32:15;;;;;;;;;;;;;;;18.98;51.22;101035.00;7399873;19;1455;-54
2023/04/29 08:34:44;;;;;;;;;;;;;;;18.86;51.16;101039.53;7399718;19;1446;-54
2023/04/29 08:37:12;;;;;;;;;;;;;;;18.81;51.19;101052.50;7399991;19;1504;-54
2023/04/29 08:39:42;;;;;;;;;;;;;;;18.82;51.02;101049.69;7397228;19;1505;-54
2023/04/29 08:42:11;;;;;;;;;;;;;;;18.82;50.31;101048.81;7399513;19;1618;-54
2023/04/29 08:44:39;;;;;;;;;;;;;;;18.86;50.36;101039.53;7398975;19;1287;-54
2023/04/29 08:47:08;;;;;;;;;;;;;;;18.87;49.42;101039.44;7399659;19;1564;-54
2023/04/29 08:49:39;;;;;;;;;;;;;;;18.89;49.34;101025.91;7398329;19;1849;-54
2023/04/29 08:52:08;;;;;;;;;;;;;;;18.88;46.91;101048.34;7399951;19;1214;-54
2023/04/29 08:54:36;;;;;;;;;;;;;;;18.84;48.90;101030.78;7399742;19;1532;-53
2023/04/29 08:57:05;;;;;;;;;;;;;;;18.79;48.01;101027.63;7400164;19;1509;-55
2023/04/29 08:59:34;;;;;;;;;;;;;;;18.87;48.32;101043.94;7399526;19;1381;-53
2023/04/29 09:02:02;;;;;;;;;;;;;;;18.84;46.80;101037.03;7400735;19;1330;-53
2023/04/29 09:04:35;;;;;;;;;;;;;;;18.92;46.07;101028.34;7398827;19;1414;-53
2023/04/29 09:07:07;;;;;;;;;;;;;;;18.95;47.26;101038.78;7399154;19;1272;-54
2023/04/29 09:09:35;;;;;;;;;;;;;;;18.97;48.02;101030.63;7398103;19;1840;-54
2023/04/29 09:12:04;;;;;;;;;;;;;;;18.90;48.29;101030.31;7398606;19;1904;-54
2023/04/29 09:14:33;;;;;;;;;;;;;;;18.91;47.07;101015.91;7399116;19;1282;-54
2023/04/29 09:17:01;;;;;;;;;;;;;;;19.01;48.43;101029.38;7400050;19;1093;-54
2023/04/29 09:19:33;;;;;;;;;;;;;;;19.02;48.02;101012.31;7398859;19;1493;-54
2023/04/29 09:22:02;;;;;;;;;;;;;;;19.01;48.63;101007.94;7398129;19;1541;-54
2023/04/29 09:24:33;;;;;;;;;;;;;;;18.94;48.85;101004.94;7397547;19;1381;-54
2023/04/29 09:27:03;;;;;;;;;;;;;;;19.01;49.38;100992.72;7396697;19;1452;-54
2023/04/29 09:29:32;;;;;;;;;;;;;;;19.16;48.66;101008.47;7398428;19;1845;-54
2023/04/29 09:32:01;;;;;;;;;;;;;;;19.08;47.67;101004.63;7398699;19;1932;-54
2023/04/29 09:34:34;;;;;;;;;;;;;;;19.24;48.11;100995.28;7399236;19;1607;-54
2023/04/29 09:37:02;;;;;;;;;;;;;;;19.09;48.88;100975.97;7398581;19;1207;-54
2023/04/29 09:39:40;;;;;;;;;;;;;;;19.16;48.40;100978.97;7398773;19;1321;-54
2023/04/29 09:42:08;;;;;;;;;;;;;;;19.19;48.73;100987.59;7398347;19;1611;-54
2023/04/29 09:44:37;;;;;;;;;;;;;;;19.34;48.14;100980.09;7398419;19;1599;-54
2023/04/29 09:47:06;;;;;;;;;;;;;;;19.25;48.15;100978.19;7398984;19;1623;-54
2023/04/29 09:49:38;;;;;;;;;;;;;;;19.38;47.81;100978.00;7397597;19;1876;-54
2023/04/29 09:52:08;;;;;;;;;;;;;;;19.35;47.90;100987.13;7398383;19;1571;-54
2023/04/29 09:54:40;;;;;;;;;;;;;;;19.31;48.10;100968.78;7398471;19;1105;-54
2023/04/29 09:57:09;;;;;;;;;;;;;;;19.33;47.85;100967.66;7397804;19;1948;-54
2023/04/29 09:59:39;;;;;;;;;;;;;;;19.08;47.86;100961.72;7396730;19;1923;-54
2023/04/29 10:02:09;;;;;;;;;;;;;;;18.92;48.96;100957.78;7397622;19;1239;-54
2023/04/29 10:04:40;;;;;;;;;;;;;;;18.94;49.39;100959.38;7397844;19;1595;-60
2023/04/29 10:07:10;;;;;;;;;;;;;;;18.89;49.72;100950.88;7394725;19;1456;-58
2023/04/29 10:09:41;;;;;;;;;;;;;;;18.88;51.22;100959.91;7396664;19;1939;-58
2023/04/29 10:12:09;;;;;;;;;;;;;;;18.99;51.14;100970.53;7397069;19;1502;-58
2023/04/29 10:14:40;;;;;;;;;;;;;;;19.00;50.78;100961.53;7396640;19;1516;-58
2023/04/29 10:17:12;;;;;;;;;;;;;;;19.02;49.67;100964.94;7397497;19;1250;-58
2023/04/29 10:19:41;;;;;;;;;;;;;;;19.37;48.46;100957.53;7397228;19;1042;-57
2023/04/29 10:22:10;;;;;;;;;;;;;;;19.16;50.42;100950.34;7396398;19;1155;-58
2023/04/29 10:24:41;;;;;;;;;;;;;;;19.23;51.21;100956.88;7396517;19;1548;-58
2023/04/29 10:27:11;;;;;;;;;;;;;;;19.28;50.92;100953.81;7394478;19;1363;-58
2023/04/29 10:29:40;;;;;;;;;;;;;;;19.26;49.66;100953.09;7396629;19;1858;-57
2023/04/29 10:32:11;;;;;;;;;;;;;;;19.49;49.76;100937.66;7396586;19;1477;-58
2023/04/29 10:34:40;;;;;;;;;;;;;;;19.45;50.63;100949.66;7395646;19;1477;-58
2023/04/29 10:37:10;;;;;;;;;;;;;;;19.44;51.14;100926.50;7396001;19;1562;-58
2023/04/29 10:39:45;;;;;;;;;;;;;;;19.31;50.32;100929.41;7394469;19;1611;-58
2023/04/29 10:42:18;;;;;;;;;;;;;;;19.38;50.62;100922.53;7394851;19;1351;-58
2023/04/29 10:45:01;;;;;;;;;;;;;;;19.37;51.40;100936.91;7396029;19;1500;-57
2023/04/29 10:47:29;;;;;;;;;;;;;;;19.28;52.42;100927.00;7396022;19;1742;-59
2023/04/29 10:50:04;;;;;;;;;;;;;;;19.21;52.07;100932.03;7394136;19;1865;-58
2023/04/29 10:52:32;;;;;;;;;;;;;;;19.11;51.52;100932.97;7395989;19;1500;-58
2023/04/29 10:55:06;;;;;;;;;;;;;;;19.13;51.85;100928.31;7395637;19;1540;-58
2023/04/29 10:57:35;;;;;;;;;;;;;;;19.39;51.52;100924.22;7393866;19;1386;-54
2023/04/29 11:00:05;;;;;;;;;;;;;;;19.44;51.58;100916.63;7392997;19;1473;-52
2023/04/29 11:02:33;;;;;;;;;;;;;;;19.31;51.48;100925.88;7392571;19;1418;-53
2023/04/29 11:05:11;;;;;;;;;;;;;;;19.27;51.50;100930.66;7395349;19;1528;-54
2023/04/29 11:07:40;;;;;;;;;;;;;;;19.26;52.27;100920.91;7400773;19;1430;-52
2023/04/29 11:10:11;;;;;;;;;;;;;;;19.44;51.78;100921.16;7400590;19;1863;-52
2023/04/29 11:12:39;;;;;;;;;;;;;;;19.54;51.28;100915.81;7401759;19;1217;-51
2023/04/29 11:15:10;;;;;;;;;;;;;;;19.43;51.71;100911.38;7401862;19;1275;-54
2023/04/29 11:17:40;;;;;;;;;;;;;;;19.54;49.82;100910.47;7402512;19;1512;-51
2023/04/29 11:20:11;;;;;;;;;;;;;;;19.45;49.34;100899.53;7402102;19;1180;-51
2023/04/29 11:22:39;;;;;;;;;;;;;;;19.51;50.17;100897.31;7400814;19;1298;-51
2023/04/29 11:25:11;;;;;;;;;;;;;;;19.37;51.23;100914.59;7402893;19;1278;-54
2023/04/29 11:27:41;;;;;;;;;;;;;;;19.29;50.78;100917.97;7399193;19;1849;-54
2023/04/29 11:30:10;;;;;;;;;;;;;;;19.37;51.63;100903.88;7401319;19;1863;-54
2023/04/29 11:32:39;;;;;;;;;;;;;;;19.45;50.88;100896.84;7401959;19;1555;-54
2023/04/29 11:35:11;;;;;;;;;;;;;;;19.64;51.38;100900.59;7402218;19;1378;-54
2023/04/29 11:37:39;;;;;;;;;;;;;;;19.59;50.06;100903.69;7401406;19;1381;-55
2023/04/29 11:40:12;;;;;;;;;;;;;;;19.57;50.73;100907.50;7402254;19;1578;-54
2023/04/29 11:42:43;;;;;;;;;;;;;;;19.51;49.91;100913.41;7401302;19;1521;-54
2023/04/29 11:45:11;;;;;;;;;;;;;;;19.56;50.68;100903.13;7401697;19;1284;-54
2023/04/29 11:47:44;;;;;;;;;;;;;;;19.51;49.41;100895.47;7400993;19;1620;-54
2023/04/29 11:50:15;;;;;;;;;;;;;;;19.65;49.12;100907.66;7399271;19;1864;-54
2023/04/29 11:52:43;;;;;;;;;;;;;;;19.38;50.26;100901.06;7401062;19;1616;-54
2023/04/29 11:55:14;;;;;;;;;;;;;;;19.34;50.91;100898.78;7398237;19;1453;-58
2023/04/29 11:57:43;;;;;;;;;;;;;;;19.35;50.89;100892.44;7401408;19;1301;-58
2023/04/29 12:00:12;;;;;;;;;;;;;;;19.22;52.08;100892.69;7400650;19;1293;-59
2023/04/29 12:02:41;;;;;;;;;;;;;;;19.24;52.09;100893.41;7401778;19;1599;-59
2023/04/29 12:05:11;;;;;;;;;;;;;;;19.55;51.33;100875.44;7401312;19;1556;-58
2023/04/29 12:07:40;;;;;;;;;;;;;;;19.45;51.50;100874.56;7399836;19;1481;-54
2023/04/29 12:10:10;;;;;;;;;;;;;;;19.33;52.20;100881.00;7399520;19;1846;-52
2023/04/29 12:12:42;;;;;;;;;;;;;;;19.22;52.70;100879.28;7397911;19;1313;-54
2023/04/29 12:15:11;;;;;;;;;;;;;;;19.38;51.83;100879.63;7400996;19;1515;-54
2023/04/29 12:17:40;;;;;;;;;;;;;;;19.58;51.31;100874.34;7398466;19;1544;-52
2023/04/29 12:20:09;;;;;;;;;;;;;;;19.55;51.57;100869.22;7400895;19;2135;-53
2023/04/29 12:22:37;;;;;;;;;;;;;;;19.64;51.72;100865.72;7400244;19;1598;-54
2023/04/29 12:25:06;;;;;;;;;;;;;;;19.67;51.53;100868.13;7399976;19;1285;-54
2023/04/29 12:27:35;;;;;;;;;;;;;;;19.66;51.72;100863.75;7397945;19;1920;-54
2023/04/29 12:30:08;;;;;;;;;;;;;;;19.56;52.13;100861.03;7399232;19;1864;-54
2023/04/29 12:32:36;;;;;;;;;;;;;;;19.33;52.71;100860.41;7400236;19;1196;-54
2023/04/29 12:35:04;;;;;;;;;;;;;;;19.44;52.95;100860.31;7399937;19;1489;-54
2023/04/29 12:37:33;;;;;;;;;;;;;;;19.33;53.13;100843.47;7399131;19;1545;-54
2023/04/29 12:40:02;;;;;;;;;;;;;;;19.23;53.55;100859.50;7399050;19;1453;-55
2023/04/29 12:42:33;;;;;;;;;;;;;;;19.23;53.74;100838.91;7399440;19;1057;-54
2023/04/29 12:45:02;;;;;;;;;;;;;;;19.15;53.85;100851.31;7399604;19;1865;-54
2023/04/29 12:47:36;;;;;;;;;;;;;;;19.23;53.82;100840.75;7399185;19;1619;-54
2023/04/29 12:50:04;;;;;;;;;;;;;;;19.11;54.19;100834.63;7398258;19;1859;-54
2023/04/29 12:52:32;;;;;;;;;;;;;;;19.12;54.40;100836.34;7398598;19;1560;-54
2023/04/29 12:55:01;;;;;;;;;;;;;;;19.18;54.32;100837.59;7398832;19;1679;-54
2023/04/29 12:57:29;;;;;;;;;;;;;;;19.19;54.27;100825.91;7398106;19;1532;-54